Time;durP1;ratioP1;P1;durP2;ratioP2;P2;SDS_P1;SDS_P2;PMS_P1;PMS_P2;Temp;Humidity;BMP_temperature;BMP_pressure;BME280_temperature;BME280_humidity;BME280_pressure;Samples;Min_cycle;Max_cycle;Signal;HPM_P1;HPM_P2
2023/06/10 00:01:47;;;;;;;;;;;21.70;99.90;;;;;;5074594;28;19904;-77
2023/06/10 00:04:16;;;;;;;;;;;21.70;99.90;;;;;;5090626;28;19977;-77
2023/06/10 00:06:43;;;;;;;;;;;21.70;99.90;;;;;;5091195;28;19904;-78
2023/06/10 00:09:10;;;;;;;;;;;21.70;99.90;;;;;;5090957;28;20356;-77
2023/06/10 00:11:37;;;;;;;;;;;21.70;99.90;;;;;;5110925;28;20038;-77
2023/06/10 00:14:03;;;;;;;;;;;21.60;99.90;;;;;;5111646;28;19943;-77
2023/06/10 00:16:29;;;;;;;;;;;21.60;99.90;;;;;;5111391;28;19904;-78
2023/06/10 00:19:00;;;;;;;;;;;21.60;99.90;;;;;;5111547;28;20272;-78
2023/06/10 00:21:27;;;;;;;;;;;21.70;99.90;;;;;;5096666;28;19913;-77
2023/06/10 00:23:53;;;;;;;;;;;21.60;99.90;;;;;;5114682;28;19915;-77
2023/06/10 00:26:20;;;;;;;;;;;21.60;99.90;;;;;;5114980;28;19957;-78
2023/06/10 00:28:45;;;;;;;;;;;21.70;99.90;;;;;;5096878;28;19994;-78
2023/06/10 00:31:11;;;;;;;;;;;21.60;99.90;;;;;;5101284;28;20337;-78
2023/06/10 00:33:37;;;;;;;;;;;21.60;99.90;;;;;;5094780;28;20318;-78
2023/06/10 00:36:03;;;;;;;;;;;21.60;99.90;;;;;;5094384;28;20272;-78
2023/06/10 00:38:29;;;;;;;;;;;21.50;99.90;;;;;;5094367;28;19915;-77
2023/06/10 00:40:55;;;;;;;;;;;21.50;99.90;;;;;;5109435;28;20354;-77
2023/06/10 00:43:21;;;;;;;;;;;21.40;99.90;;;;;;5096190;28;19911;-78
2023/06/10 00:45:46;;;;;;;;;;;21.30;99.90;;;;;;5114644;28;19904;-78
2023/06/10 00:48:12;;;;;;;;;;;21.30;99.90;;;;;;5096225;28;19972;-77
2023/06/10 00:50:41;;;;;;;;;;;21.30;99.90;;;;;;5096249;28;19926;-78
2023/06/10 00:53:07;;;;;;;;;;;21.40;99.90;;;;;;5096341;28;19903;-77
2023/06/10 00:55:33;;;;;;;;;;;21.30;99.90;;;;;;5114572;28;19973;-77
2023/06/10 00:57:59;;;;;;;;;;;21.40;99.90;;;;;;5114836;28;19904;-78
2023/06/10 01:00:31;;;;;;;;;;;21.50;99.90;;;;;;5107199;28;19904;-77
2023/06/10 01:02:57;;;;;;;;;;;21.50;99.90;;;;;;5075786;28;19912;-78
2023/06/10 01:05:23;;;;;;;;;;;21.60;99.90;;;;;;5094495;28;19957;-77
2023/06/10 01:08:00;;;;;;;;;;;21.50;99.90;;;;;;5076143;28;19959;-75
2023/06/10 01:10:38;;;;;;;;;;;21.50;99.90;;;;;;5105503;28;19918;-77
2023/06/10 01:13:11;;;;;;;;;;;21.40;99.90;;;;;;5114434;28;19919;-77
2023/06/10 01:15:38;;;;;;;;;;;21.40;99.90;;;;;;5114832;28;20281;-77
2023/06/10 01:18:08;;;;;;;;;;;21.40;99.90;;;;;;5114511;28;19903;-78
2023/06/10 01:20:34;;;;;;;;;;;21.30;99.90;;;;;;5114429;28;19911;-77
2023/06/10 01:23:02;;;;;;;;;;;21.20;99.90;;;;;;5113692;28;19912;-77
2023/06/10 01:25:29;;;;;;;;;;;21.20;99.90;;;;;;5114046;28;19908;-78
2023/06/10 01:28:14;;;;;;;;;;;21.10;99.90;;;;;;5114252;28;19903;-77
2023/06/10 01:30:53;;;;;;;;;;;21.10;99.90;;;;;;5104074;28;19954;-77
2023/06/10 01:33:25;;;;;;;;;;;21.20;99.90;;;;;;5093518;28;19919;-78
2023/06/10 01:35:51;;;;;;;;;;;21.20;99.90;;;;;;5093222;28;20210;-76
2023/06/10 01:38:19;;;;;;;;;;;21.10;99.90;;;;;;5093546;28;19908;-76
2023/06/10 01:40:46;;;;;;;;;;;21.10;99.90;;;;;;5106803;28;20224;-77
2023/06/10 01:43:12;;;;;;;;;;;21.10;99.90;;;;;;5113702;28;19920;-76
2023/06/10 01:45:37;;;;;;;;;;;21.10;99.90;;;;;;5113434;28;19903;-76
2023/06/10 01:48:03;;;;;;;;;;;21.20;99.90;;;;;;5094817;28;19911;-76
2023/06/10 01:50:29;;;;;;;;;;;21.20;99.90;;;;;;5113506;28;20385;-76
2023/06/10 01:52:56;;;;;;;;;;;21.30;99.90;;;;;;5113583;28;20256;-77
2023/06/10 01:55:22;;;;;;;;;;;21.30;99.90;;;;;;5113514;28;19972;-77
2023/06/10 01:57:48;;;;;;;;;;;21.30;99.90;;;;;;5113470;28;20367;-77
2023/06/10 02:00:14;;;;;;;;;;;21.30;99.90;;;;;;5107757;28;20270;-76
2023/06/10 02:02:40;;;;;;;;;;;21.40;99.90;;;;;;5093236;28;19959;-76
2023/06/10 02:05:06;;;;;;;;;;;21.40;99.90;;;;;;5074592;28;19907;-77
2023/06/10 02:07:31;;;;;;;;;;;21.40;99.90;;;;;;5092723;28;19904;-77
2023/06/10 02:09:57;;;;;;;;;;;21.40;99.90;;;;;;5081474;28;19987;-76
2023/06/10 02:12:23;;;;;;;;;;;21.40;99.90;;;;;;5094492;28;20335;-77
2023/06/10 02:14:50;;;;;;;;;;;21.40;99.90;;;;;;5112584;28;20014;-77
2023/06/10 02:17:16;;;;;;;;;;;21.40;99.90;;;;;;5094347;28;20378;-78
2023/06/10 02:19:42;;;;;;;;;;;21.30;99.90;;;;;;5112886;28;19903;-77
2023/06/10 02:22:09;;;;;;;;;;;21.40;99.90;;;;;;5094370;28;20041;-76
2023/06/10 02:24:38;;;;;;;;;;;21.40;99.90;;;;;;5112658;28;19907;-77
2023/06/10 02:27:06;;;;;;;;;;;21.40;99.90;;;;;;5112032;28;19904;-78
2023/06/10 02:29:33;;;;;;;;;;;21.40;99.90;;;;;;5112035;28;19903;-77
2023/06/10 02:31:59;;;;;;;;;;;21.40;99.90;;;;;;5071702;28;20264;-77
2023/06/10 02:34:25;;;;;;;;;;;21.40;99.90;;;;;;5071382;28;19904;-77
2023/06/10 02:36:51;;;;;;;;;;;21.30;99.90;;;;;;5071525;28;19951;-77
2023/06/10 02:39:17;;;;;;;;;;;21.40;99.90;;;;;;5074420;28;19908;-77
2023/06/10 02:41:45;;;;;;;;;;;21.40;99.90;;;;;;5111841;28;19972;-77
2023/06/10 02:44:11;;;;;;;;;;;21.40;99.90;;;;;;5111923;28;20018;-77
2023/06/10 02:46:37;;;;;;;;;;;21.40;99.90;;;;;;5111955;28;19911;-77
2023/06/10 02:49:03;;;;;;;;;;;21.00;99.90;;;;;;5112013;28;19952;-76
2023/06/10 02:51:32;;;;;;;;;;;20.80;99.90;;;;;;5111662;28;20322;-77
2023/06/10 02:53:57;;;;;;;;;;;20.70;99.90;;;;;;5111523;28;19907;-76
2023/06/10 02:56:23;;;;;;;;;;;20.70;99.90;;;;;;5093363;28;20355;-77
2023/06/10 02:58:51;;;;;;;;;;;20.70;99.90;;;;;;5112367;28;19904;-77
2023/06/10 03:01:18;;;;;;;;;;;20.70;99.90;;;;;;5112957;27;19923;-76
2023/06/10 03:03:46;;;;;;;;;;;20.70;99.90;;;;;;5091403;28;19919;-77
2023/06/10 03:06:12;;;;;;;;;;;20.80;99.90;;;;;;5091309;28;20352;-77
2023/06/10 03:08:39;;;;;;;;;;;20.90;99.90;;;;;;5091513;28;19911;-76
2023/06/10 03:11:04;;;;;;;;;;;20.90;99.90;;;;;;5107544;28;20248;-76
2023/06/10 03:13:30;;;;;;;;;;;20.90;99.90;;;;;;5111843;28;20332;-76
2023/06/10 03:15:56;;;;;;;;;;;20.90;99.90;;;;;;5112385;28;19947;-77
2023/06/10 03:18:25;;;;;;;;;;;20.90;99.90;;;;;;5113742;28;20296;-76
2023/06/10 03:20:55;;;;;;;;;;;20.90;99.90;;;;;;5111697;28;19994;-77
2023/06/10 03:23:27;;;;;;;;;;;21.00;99.90;;;;;;5112058;28;19915;-76
2023/06/10 03:25:54;;;;;;;;;;;21.00;99.90;;;;;;5112029;28;19927;-78
2023/06/10 03:28:21;;;;;;;;;;;21.00;99.90;;;;;;5112667;28;19907;-77
2023/06/10 03:30:47;;;;;;;;;;;21.00;99.90;;;;;;5101813;28;19908;-77
2023/06/10 03:33:13;;;;;;;;;;;21.10;99.90;;;;;;5091694;28;19939;-77
2023/06/10 03:35:39;;;;;;;;;;;21.00;99.90;;;;;;5091982;28;19969;-77
2023/06/10 03:38:05;;;;;;;;;;;21.00;99.90;;;;;;5091064;28;19979;-78
2023/06/10 03:40:31;;;;;;;;;;;21.00;99.90;;;;;;5103488;28;19932;-77
2023/06/10 03:42:58;;;;;;;;;;;21.10;99.90;;;;;;5111995;28;20049;-77
2023/06/10 03:45:24;;;;;;;;;;;21.00;99.90;;;;;;5093400;28;19911;-77
2023/06/10 03:47:50;;;;;;;;;;;21.10;99.90;;;;;;5112281;28;19926;-77
2023/06/10 03:50:16;;;;;;;;;;;21.10;99.90;;;;;;5111809;28;19916;-77
2023/06/10 03:52:42;;;;;;;;;;;21.10;99.90;;;;;;5093304;28;20289;-77
2023/06/10 03:55:08;;;;;;;;;;;21.20;99.90;;;;;;5113291;28;20312;-78
2023/06/10 03:57:33;;;;;;;;;;;21.10;99.90;;;;;;5116117;28;20252;-77
2023/06/10 03:59:59;;;;;;;;;;;21.00;99.90;;;;;;5112452;28;19949;-77
2023/06/10 04:02:25;;;;;;;;;;;20.80;99.90;;;;;;5094044;28;19908;-77
2023/06/10 04:04:51;;;;;;;;;;;20.80;99.90;;;;;;5095581;28;19915;-78
2023/06/10 04:07:18;;;;;;;;;;;20.90;99.90;;;;;;5095434;28;19969;-77
2023/06/10 04:09:44;;;;;;;;;;;20.90;99.90;;;;;;5097232;28;19904;-75
2023/06/10 04:12:10;;;;;;;;;;;21.00;99.90;;;;;;5115527;28;20286;-77
2023/06/10 04:14:37;;;;;;;;;;;21.00;99.90;;;;;;5115830;28;19957;-78
2023/06/10 04:17:06;;;;;;;;;;;21.10;99.90;;;;;;5116346;28;19904;-78
2023/06/10 04:19:32;;;;;;;;;;;21.10;99.90;;;;;;5116188;28;19911;-77
2023/06/10 04:21:58;;;;;;;;;;;21.10;99.90;;;;;;5116032;28;20059;-78
2023/06/10 04:24:24;;;;;;;;;;;21.20;99.90;;;;;;5116387;28;20058;-77
2023/06/10 04:26:50;;;;;;;;;;;21.20;99.90;;;;;;5097669;28;19911;-77
2023/06/10 04:29:15;;;;;;;;;;;21.20;99.90;;;;;;5116207;28;19910;-76
2023/06/10 04:31:41;;;;;;;;;;;21.30;99.90;;;;;;5098221;28;19903;-77
2023/06/10 04:34:07;;;;;;;;;;;21.20;99.90;;;;;;5096057;28;20272;-77
2023/06/10 04:36:33;;;;;;;;;;;21.30;99.90;;;;;;5095520;28;20023;-77
2023/06/10 04:38:59;;;;;;;;;;;21.40;99.90;;;;;;5095809;28;19904;-77
2023/06/10 04:41:25;;;;;;;;;;;21.50;99.90;;;;;;5096933;28;19927;-77
2023/06/10 04:43:51;;;;;;;;;;;21.40;99.90;;;;;;5116090;28;20321;-77
2023/06/10 04:46:17;;;;;;;;;;;21.30;99.90;;;;;;5115683;28;19915;-77
2023/06/10 04:48:46;;;;;;;;;;;21.20;99.90;;;;;;5115924;28;19904;-77
2023/06/10 04:51:13;;;;;;;;;;;21.20;99.90;;;;;;5115505;28;19964;-77
2023/06/10 04:53:39;;;;;;;;;;;21.30;99.90;;;;;;5115680;28;19918;-77
2023/06/10 04:56:05;;;;;;;;;;;21.10;99.90;;;;;;5115343;28;19991;-77
2023/06/10 04:58:31;;;;;;;;;;;20.90;99.90;;;;;;5115284;28;19950;-77
2023/06/10 05:00:57;;;;;;;;;;;20.90;99.90;;;;;;5103612;28;19911;-77
2023/06/10 05:03:22;;;;;;;;;;;21.00;99.90;;;;;;5094875;28;19912;-78
2023/06/10 05:05:48;;;;;;;;;;;20.90;99.90;;;;;;5094730;28;19957;-77
2023/06/10 05:08:14;;;;;;;;;;;20.90;99.90;;;;;;5094914;28;19911;-76
2023/06/10 05:10:40;;;;;;;;;;;20.80;99.90;;;;;;5107409;28;19904;-77
2023/06/10 05:13:06;;;;;;;;;;;20.90;99.90;;;;;;5115194;28;20331;-77
2023/06/10 05:15:32;;;;;;;;;;;20.90;99.90;;;;;;5130865;27;20301;-77
2023/06/10 05:18:05;;;;;;;;;;;20.90;99.90;;;;;;5115620;28;19920;-78
2023/06/10 05:20:31;;;;;;;;;;;21.00;99.90;;;;;;5116028;28;19969;-78
2023/06/10 05:22:56;;;;;;;;;;;21.00;99.90;;;;;;5115864;28;19916;-78
2023/06/10 05:25:22;;;;;;;;;;;21.10;99.90;;;;;;5115739;28;20006;-78
2023/06/10 05:27:48;;;;;;;;;;;21.30;99.90;;;;;;5116162;28;20370;-77
2023/06/10 05:30:14;;;;;;;;;;;21.30;99.90;;;;;;5110050;28;19904;-77
2023/06/10 05:32:40;;;;;;;;;;;21.30;99.90;;;;;;5095185;28;19904;-76
2023/06/10 05:35:06;;;;;;;;;;;21.40;99.90;;;;;;5095602;28;19951;-77
2023/06/10 05:37:33;;;;;;;;;;;21.40;99.90;;;;;;5095108;28;19911;-77
2023/06/10 05:39:59;;;;;;;;;;;21.50;99.90;;;;;;5083916;28;19915;-76
2023/06/10 05:42:25;;;;;;;;;;;21.50;99.90;;;;;;5114926;28;19915;-76
2023/06/10 05:44:51;;;;;;;;;;;21.60;99.90;;;;;;5114861;28;20369;-76
2023/06/10 05:47:16;;;;;;;;;;;21.50;99.90;;;;;;5115147;28;19912;-76
2023/06/10 05:49:42;;;;;;;;;;;21.50;99.90;;;;;;5114454;28;20322;-76
2023/06/10 05:52:08;;;;;;;;;;;21.50;99.90;;;;;;5114580;28;19910;-77
2023/06/10 05:54:34;;;;;;;;;;;21.60;99.90;;;;;;5114520;28;20008;-77
2023/06/10 05:57:00;;;;;;;;;;;21.60;99.90;;;;;;5114851;28;20263;-76
2023/06/10 05:59:26;;;;;;;;;;;21.80;99.90;;;;;;5114113;28;19969;-76
2023/06/10 06:01:51;;;;;;;;;;;21.90;99.90;;;;;;5094794;28;19904;-78
2023/06/10 06:04:17;;;;;;;;;;;22.10;99.90;;;;;;5093685;28;20220;-76
2023/06/10 06:06:43;;;;;;;;;;;22.30;99.90;;;;;;5093953;28;19904;-76
2023/06/10 06:09:09;;;;;;;;;;;22.70;99.90;;;;;;5093843;28;19904;-76
2023/06/10 06:11:35;;;;;;;;;;;23.10;99.90;;;;;;5113772;28;20365;-78
2023/06/10 06:14:01;;;;;;;;;;;23.10;99.90;;;;;;5113991;28;19908;-77
2023/06/10 06:16:27;;;;;;;;;;;23.00;99.90;;;;;;5113994;28;20236;-77
2023/06/10 06:18:53;;;;;;;;;;;22.70;99.90;;;;;;5113370;28;19903;-75
2023/06/10 06:21:18;;;;;;;;;;;22.80;99.90;;;;;;5114204;28;19929;-76
2023/06/10 06:23:44;;;;;;;;;;;23.60;99.90;;;;;;5113932;28;20003;-77
2023/06/10 06:26:10;;;;;;;;;;;25.20;99.90;;;;;;5113886;28;19904;-78
2023/06/10 06:28:36;;;;;;;;;;;26.80;99.90;;;;;;5114282;28;20352;-77
2023/06/10 06:31:02;;;;;;;;;;;28.00;99.90;;;;;;5101791;28;19907;-77
2023/06/10 06:33:27;;;;;;;;;;;28.80;99.90;;;;;;5109261;28;19920;-76
2023/06/10 06:35:53;;;;;;;;;;;29.60;99.90;;;;;;5075035;28;19980;-76
2023/06/10 06:38:19;;;;;;;;;;;30.80;99.90;;;;;;5093994;28;19947;-77
2023/06/10 06:40:45;;;;;;;;;;;32.60;99.90;;;;;;5106826;28;19915;-77
2023/06/10 06:43:11;;;;;;;;;;;34.30;99.90;;;;;;5113653;28;19912;-77
2023/06/10 06:45:37;;;;;;;;;;;35.30;99.90;;;;;;5113472;28;19915;-76
2023/06/10 06:48:02;;;;;;;;;;;33.80;99.90;;;;;;5113704;28;19933;-76
2023/06/10 06:50:28;;;;;;;;;;;33.80;99.90;;;;;;5113262;28;19907;-77
2023/06/10 06:52:54;;;;;;;;;;;32.70;99.90;;;;;;5095327;28;19970;-75
2023/06/10 06:55:20;;;;;;;;;;;32.20;99.90;;;;;;5113122;28;20012;-76
2023/06/10 06:57:58;;;;;;;;;;;31.40;99.90;;;;;;5113269;28;20315;-76
2023/06/10 07:00:24;;;;;;;;;;;30.50;99.90;;;;;;5106448;28;19911;-78
2023/06/10 07:02:50;;;;;;;;;;;30.00;99.90;;;;;;5092809;28;19908;-75
2023/06/10 07:05:16;;;;;;;;;;;29.10;99.90;;;;;;5093196;28;20049;-79
2023/06/10 07:07:41;;;;;;;;;;;28.70;99.90;;;;;;5093098;28;19943;-78
2023/06/10 07:10:07;;;;;;;;;;;28.30;99.90;;;;;;5101257;28;19908;-77
2023/06/10 07:12:33;;;;;;;;;;;27.80;99.90;;;;;;5113187;28;19916;-78
2023/06/10 07:14:59;;;;;;;;;;;27.50;99.90;;;;;;5113532;28;19907;-76
2023/06/10 07:17:26;;;;;;;;;;;27.30;99.90;;;;;;5112792;28;20051;-76
2023/06/10 07:19:52;;;;;;;;;;;27.10;99.90;;;;;;5113239;28;19903;-78
2023/06/10 07:22:18;;;;;;;;;;;26.90;99.90;;;;;;5112750;28;19968;-77
2023/06/10 07:24:44;;;;;;;;;;;26.70;99.90;;;;;;5112487;28;19994;-76
2023/06/10 07:27:10;;;;;;;;;;;26.40;99.90;;;;;;5094231;28;19954;-76
2023/06/10 07:29:35;;;;;;;;;;;26.50;99.90;;;;;;5093157;28;19915;-76
2023/06/10 07:32:02;;;;;;;;;;;26.40;99.90;;;;;;5092769;28;19922;-76
2023/06/10 07:34:28;;;;;;;;;;;26.40;99.90;;;;;;5073788;28;19942;-76
2023/06/10 07:36:54;;;;;;;;;;;26.10;99.90;;;;;;5074312;28;19904;-75
2023/06/10 07:39:20;;;;;;;;;;;26.40;99.90;;;;;;5075990;28;19915;-76
2023/06/10 07:41:46;;;;;;;;;;;26.70;99.90;;;;;;5112220;28;19910;-77
2023/06/10 07:44:12;;;;;;;;;;;27.10;99.90;;;;;;5112495;28;19911;-77
2023/06/10 07:46:38;;;;;;;;;;;27.40;99.90;;;;;;5112776;28;19943;-78
2023/06/10 07:49:04;;;;;;;;;;;27.80;99.90;;;;;;5112717;28;19903;-75
2023/06/10 07:51:29;;;;;;;;;;;27.90;99.90;;;;;;5094051;28;19904;-76
2023/06/10 07:53:55;;;;;;;;;;;27.90;99.90;;;;;;5093481;28;19904;-77
2023/06/10 07:56:21;;;;;;;;;;;27.70;99.90;;;;;;5111478;28;20305;-77
2023/06/10 07:58:47;;;;;;;;;;;27.60;99.90;;;;;;5112068;28;19907;-77
2023/06/10 08:01:13;;;;;;;;;;;27.30;99.90;;;;;;5098109;28;19904;-76
2023/06/10 08:03:38;;;;;;;;;;;27.10;99.90;;;;;;5091715;28;20052;-76
2023/06/10 08:06:05;;;;;;;;;;;26.70;99.90;;;;;;5092126;28;19911;-76
2023/06/10 08:08:31;;;;;;;;;;;26.60;99.90;;;;;;5091501;28;19915;-77
2023/06/10 08:10:57;;;;;;;;;;;26.50;99.90;;;;;;5088355;28;19912;-78
2023/06/10 08:13:23;;;;;;;;;;;26.20;99.90;;;;;;5093709;28;20356;-76
2023/06/10 08:15:55;;;;;;;;;;;26.00;99.90;;;;;;5112275;28;19998;-76
2023/06/10 08:18:21;;;;;;;;;;;25.80;99.90;;;;;;5112515;28;20321;-77
2023/06/10 08:20:46;;;;;;;;;;;25.50;99.90;;;;;;5112027;28;20378;-76
2023/06/10 08:23:13;;;;;;;;;;;25.60;99.90;;;;;;5093568;28;19934;-76
2023/06/10 08:25:39;;;;;;;;;;;25.50;99.90;;;;;;5093411;28;20390;-75
2023/06/10 08:28:05;;;;;;;;;;;25.00;99.90;;;;;;5112385;28;19904;-75
2023/06/10 08:30:31;;;;;;;;;;;24.60;99.90;;;;;;5104719;28;19908;-77
2023/06/10 08:32:56;;;;;;;;;;;24.20;99.90;;;;;;5090446;28;20268;-75
2023/06/10 08:35:22;;;;;;;;;;;24.50;99.90;;;;;;5092121;28;19904;-76
2023/06/10 08:37:48;;;;;;;;;;;24.70;99.90;;;;;;5091518;28;19998;-76
2023/06/10 08:40:14;;;;;;;;;;;24.70;99.90;;;;;;5101303;28;19903;-75
2023/06/10 08:42:44;;;;;;;;;;;24.60;99.90;;;;;;5115677;28;19946;-77
2023/06/10 08:45:13;;;;;;;;;;;24.70;99.90;;;;;;5115751;28;20041;-77
2023/06/10 08:47:41;;;;;;;;;;;24.80;99.90;;;;;;5115729;28;19952;-76
2023/06/10 08:50:08;;;;;;;;;;;25.00;99.90;;;;;;5115970;28;19904;-75
2023/06/10 08:52:37;;;;;;;;;;;24.90;99.90;;;;;;5115183;28;20360;-75
2023/06/10 08:55:09;;;;;;;;;;;24.80;99.90;;;;;;5114772;28;19944;-76
2023/06/10 08:57:36;;;;;;;;;;;24.80;99.90;;;;;;5115240;28;19923;-76
2023/06/10 09:00:03;;;;;;;;;;;24.80;99.90;;;;;;5111052;28;19904;-76
2023/06/10 09:02:30;;;;;;;;;;;24.60;99.90;;;;;;5092888;28;19972;-76
2023/06/10 09:04:56;;;;;;;;;;;24.50;99.90;;;;;;5076060;28;19908;-76
2023/06/10 09:07:22;;;;;;;;;;;24.40;99.90;;;;;;5076159;28;19947;-76
2023/06/10 09:09:49;;;;;;;;;;;24.20;99.90;;;;;;5100235;28;19954;-77
2023/06/10 09:12:15;;;;;;;;;;;24.30;99.90;;;;;;5114827;28;19915;-77
2023/06/10 09:14:41;;;;;;;;;;;24.30;99.90;;;;;;5115300;28;19950;-77
2023/06/10 09:17:07;;;;;;;;;;;24.40;99.90;;;;;;5114915;28;19947;-76
2023/06/10 09:19:33;;;;;;;;;;;24.20;99.90;;;;;;5114865;28;19934;-76
2023/06/10 09:21:59;;;;;;;;;;;24.00;99.90;;;;;;5114906;28;19911;-77
2023/06/10 09:24:25;;;;;;;;;;;24.10;99.90;;;;;;5114676;28;19911;-77
2023/06/10 09:27:01;;;;;;;;;;;24.10;99.90;;;;;;5114530;28;19915;-76
2023/06/10 09:29:27;;;;;;;;;;;24.20;99.90;;;;;;5096324;28;19972;-77
2023/06/10 09:31:53;;;;;;;;;;;24.40;99.90;;;;;;5076938;28;19908;-76
2023/06/10 09:34:19;;;;;;;;;;;24.60;99.90;;;;;;5094580;28;19904;-76
2023/06/10 09:36:45;;;;;;;;;;;24.80;99.90;;;;;;5094303;28;20010;-76
2023/06/10 09:39:18;;;;;;;;;;;24.80;99.90;;;;;;5094991;28;20252;-77
2023/06/10 09:41:45;;;;;;;;;;;25.00;99.90;;;;;;5114577;28;19904;-77
2023/06/10 09:44:14;;;;;;;;;;;25.50;99.90;;;;;;5114790;28;19911;-77
2023/06/10 09:46:41;;;;;;;;;;;25.60;99.90;;;;;;5114508;28;19998;-76
2023/06/10 09:49:07;;;;;;;;;;;25.80;99.90;;;;;;5114483;28;19904;-76
2023/06/10 09:51:33;;;;;;;;;;;26.20;99.90;;;;;;5095834;28;19904;-76
2023/06/10 09:53:59;;;;;;;;;;;26.40;99.90;;;;;;5095141;28;20416;-76
2023/06/10 09:56:35;;;;;;;;;;;26.70;99.90;;;;;;5095613;28;19956;-76
2023/06/10 09:59:01;;;;;;;;;;;27.20;99.90;;;;;;5114129;28;19904;-76
2023/06/10 10:01:27;;;;;;;;;;;27.70;99.90;;;;;;5098177;28;19911;-76
2023/06/10 10:03:53;;;;;;;;;;;27.80;99.90;;;;;;5093412;28;20302;-76
2023/06/10 10:06:19;;;;;;;;;;;27.70;99.90;;;;;;5093768;28;20320;-77
2023/06/10 10:08:46;;;;;;;;;;;27.70;99.90;;;;;;5094108;28;19904;-78
2023/06/10 10:11:14;;;;;;;;;;;27.70;99.90;;;;;;5110895;28;19908;-76
2023/06/10 10:13:40;;;;;;;;;;;27.90;99.90;;;;;;5114251;28;19903;-78
2023/06/10 10:16:10;;;;;;;;;;;27.20;99.90;;;;;;5113969;28;19911;-76
2023/06/10 10:18:38;;;;;;;;;;;26.90;99.90;;;;;;5113703;28;19904;-77
2023/06/10 10:21:06;;;;;;;;;;;27.40;99.90;;;;;;5113868;28;20339;-77
2023/06/10 10:23:39;;;;;;;;;;;27.90;99.90;;;;;;5113426;28;19912;-77
2023/06/10 10:26:07;;;;;;;;;;;27.90;99.90;;;;;;5113554;28;19915;-76
2023/06/10 10:28:41;;;;;;;;;;;27.80;99.90;;;;;;5113635;28;19950;-76
2023/06/10 10:31:10;;;;;;;;;;;27.90;99.90;;;;;;5100608;28;19911;-77
2023/06/10 10:33:56;;;;;;;;;;;27.70;99.90;;;;;;5093222;28;19998;-77
2023/06/10 10:36:22;;;;;;;;;;;27.80;99.90;;;;;;5093155;28;19916;-76
2023/06/10 10:38:49;;;;;;;;;;;27.80;99.90;;;;;;5093743;28;19990;-76
2023/06/10 10:41:21;;;;;;;;;;;27.50;99.90;;;;;;5092642;28;19986;-76
2023/06/10 10:43:48;;;;;;;;;;;27.50;99.90;;;;;;5113525;28;20094;-76
2023/06/10 10:46:15;;;;;;;;;;;27.50;99.90;;;;;;5113533;28;19911;-77
2023/06/10 10:48:41;;;;;;;;;;;27.90;99.90;;;;;;5113555;28;19985;-77
2023/06/10 10:51:07;;;;;;;;;;;27.70;99.90;;;;;;5113190;28;19910;-77
2023/06/10 10:53:33;;;;;;;;;;;27.20;99.90;;;;;;5113715;28;20417;-77
2023/06/10 10:56:30;;;;;;;;;;;27.20;99.90;;;;;;5113313;28;19903;-76
2023/06/10 10:59:06;;;;;;;;;;;27.50;99.90;;;;;;5090482;28;19904;-77
2023/06/10 11:01:41;;;;;;;;;;;28.10;99.90;;;;;;5096922;28;19961;-76
2023/06/10 11:04:10;;;;;;;;;;;28.20;99.90;;;;;;5092742;28;19955;-77
2023/06/10 11:06:36;;;;;;;;;;;28.40;99.90;;;;;;5091889;28;19910;-74
2023/06/10 11:09:22;;;;;;;;;;;28.40;99.90;;;;;;5092889;28;19990;-74
2023/06/10 11:11:51;;;;;;;;;;;28.50;99.90;;;;;;5072024;28;20007;-76
2023/06/10 11:14:28;;;;;;;;;;;28.70;99.90;;;;;;5054224;28;19943;-75
2023/06/10 11:16:56;;;;;;;;;;;28.90;99.90;;;;;;5072815;28;19905;-75
2023/06/10 11:19:32;;;;;;;;;;;29.00;99.90;;;;;;5072819;28;19905;-75
2023/06/10 11:21:59;;;;;;;;;;;29.30;99.90;;;;;;5072603;28;19912;-75
2023/06/10 11:24:26;;;;;;;;;;;29.50;99.90;;;;;;5054653;28;19919;-75
2023/06/10 11:26:51;;;;;;;;;;;29.70;99.90;;;;;;5072566;28;19915;-75
2023/06/10 11:29:17;;;;;;;;;;;29.60;99.90;;;;;;5072484;28;20295;-75
2023/06/10 11:31:44;;;;;;;;;;;29.30;99.90;;;;;;5090661;28;19904;-75
2023/06/10 11:34:10;;;;;;;;;;;29.50;99.90;;;;;;5093130;28;19904;-74
2023/06/10 11:36:37;;;;;;;;;;;29.30;99.90;;;;;;5092999;28;19957;-75
2023/06/10 11:39:05;;;;;;;;;;;29.50;99.90;;;;;;5074900;28;19911;-75
2023/06/10 11:41:31;;;;;;;;;;;29.20;99.90;;;;;;5112706;28;19994;-75
2023/06/10 11:44:00;;;;;;;;;;;29.20;99.90;;;;;;5112672;28;20010;-75
2023/06/10 11:46:27;;;;;;;;;;;29.40;99.90;;;;;;5112831;28;19911;-76
2023/06/10 11:48:53;;;;;;;;;;;29.30;99.90;;;;;;5112203;28;19904;-76
2023/06/10 11:51:19;;;;;;;;;;;29.50;99.90;;;;;;5112030;28;20332;-75
2023/06/10 11:53:46;;;;;;;;;;;29.60;99.90;;;;;;5112779;28;20001;-75
2023/06/10 11:56:12;;;;;;;;;;;29.40;99.90;;;;;;5094076;28;19908;-77
2023/06/10 11:58:39;;;;;;;;;;;29.10;99.90;;;;;;5112886;28;19923;-77
2023/06/10 12:01:05;;;;;;;;;;;29.00;99.90;;;;;;5100146;28;20348;-76
2023/06/10 12:03:39;;;;;;;;;;;28.70;99.90;;;;;;5092290;28;19918;-75
2023/06/10 12:06:06;;;;;;;;;;;28.80;99.90;;;;;;5092501;28;20254;-75
2023/06/10 12:08:33;;;;;;;;;;;28.90;99.90;;;;;;5092202;28;19908;-75
2023/06/10 12:10:59;;;;;;;;;;;29.20;99.90;;;;;;5107386;28;19916;-76
2023/06/10 12:13:28;;;;;;;;;;;29.40;99.90;;;;;;5112818;28;19915;-76
2023/06/10 12:15:54;;;;;;;;;;;29.30;99.90;;;;;;5113654;28;19948;-75
2023/06/10 12:18:23;;;;;;;;;;;29.30;99.90;;;;;;5117145;28;19919;-75
2023/06/10 12:20:50;;;;;;;;;;;29.10;99.90;;;;;;5098895;28;19947;-76
2023/06/10 12:23:17;;;;;;;;;;;29.30;99.90;;;;;;5117464;28;19908;-76
2023/06/10 12:25:55;;;;;;;;;;;29.00;99.90;;;;;;5117759;28;19904;-75
2023/06/10 12:28:25;;;;;;;;;;;29.20;99.90;;;;;;5117352;28;19903;-75
2023/06/10 12:30:51;;;;;;;;;;;29.10;99.90;;;;;;5106264;28;19910;-77
2023/06/10 12:33:21;;;;;;;;;;;29.00;99.90;;;;;;5096643;28;19911;-76
2023/06/10 12:35:53;;;;;;;;;;;29.10;99.90;;;;;;5096729;28;19904;-76
2023/06/10 12:38:24;;;;;;;;;;;29.10;99.90;;;;;;5096487;28;19904;-78
2023/06/10 12:40:50;;;;;;;;;;;29.20;99.90;;;;;;5110731;28;19903;-76
2023/06/10 12:43:25;;;;;;;;;;;29.20;99.90;;;;;;5117009;28;19912;-76
2023/06/10 12:45:51;;;;;;;;;;;29.50;99.90;;;;;;5117026;28;19926;-77
2023/06/10 12:48:21;;;;;;;;;;;29.40;99.90;;;;;;5132671;27;20331;-79
2023/06/10 12:50:51;;;;;;;;;;;29.30;99.90;;;;;;5116908;28;19903;-76
2023/06/10 12:53:18;;;;;;;;;;;29.30;99.90;;;;;;5116720;28;19948;-76
2023/06/10 12:55:45;;;;;;;;;;;29.30;99.90;;;;;;5116495;28;19908;-77
2023/06/10 12:58:12;;;;;;;;;;;29.30;99.90;;;;;;5116595;28;19951;-76
2023/06/10 13:00:38;;;;;;;;;;;29.50;99.90;;;;;;5089289;28;19911;-76
2023/06/10 13:03:05;;;;;;;;;;;29.50;99.90;;;;;;5096336;28;19908;-75
2023/06/10 13:05:31;;;;;;;;;;;29.50;99.90;;;;;;5096218;28;19958;-75
2023/06/10 13:07:58;;;;;;;;;;;29.20;99.90;;;;;;5095961;28;20256;-74
2023/06/10 13:10:25;;;;;;;;;;;29.40;99.90;;;;;;5107060;28;19908;-75
2023/06/10 13:12:51;;;;;;;;;;;29.00;99.90;;;;;;5115920;28;19942;-76
2023/06/10 13:15:17;;;;;;;;;;;28.70;99.90;;;;;;5116246;28;19903;-75
2023/06/10 13:17:45;;;;;;;;;;;28.90;99.90;;;;;;5097748;28;19964;-75
2023/06/10 13:20:11;;;;;;;;;;;29.10;99.90;;;;;;5116513;28;19911;-77
2023/06/10 13:22:37;;;;;;;;;;;28.90;99.90;;;;;;5097681;28;19903;-77
2023/06/10 13:25:03;;;;;;;;;;;29.10;99.90;;;;;;5115962;28;20031;-76
2023/06/10 13:27:29;;;;;;;;;;;28.90;99.90;;;;;;5114497;28;20314;-75
2023/06/10 13:29:55;;;;;;;;;;;28.50;99.90;;;;;;5113517;28;19907;-75
2023/06/10 13:32:21;;;;;;;;;;;28.50;99.90;;;;;;5095846;28;20367;-78
2023/06/10 13:34:47;;;;;;;;;;;28.30;99.90;;;;;;5095805;28;19910;-76
2023/06/10 13:37:13;;;;;;;;;;;28.20;99.90;;;;;;5095590;28;19929;-77
2023/06/10 13:39:39;;;;;;;;;;;28.40;99.90;;;;;;5100152;28;19912;-77
2023/06/10 13:42:07;;;;;;;;;;;28.50;99.90;;;;;;5115538;28;19905;-76
2023/06/10 13:44:36;;;;;;;;;;;28.20;99.90;;;;;;5115851;28;19912;-76
2023/06/10 13:47:04;;;;;;;;;;;28.10;99.90;;;;;;5115941;28;19903;-76
2023/06/10 13:49:31;;;;;;;;;;;28.10;99.90;;;;;;5115336;28;19912;-76
2023/06/10 13:51:56;;;;;;;;;;;28.00;99.90;;;;;;5114190;28;20268;-76
2023/06/10 13:54:22;;;;;;;;;;;28.10;99.90;;;;;;5114841;28;19904;-76
2023/06/10 13:56:48;;;;;;;;;;;28.40;99.90;;;;;;5114317;28;20364;-76
2023/06/10 13:59:14;;;;;;;;;;;28.40;99.90;;;;;;5096028;28;19914;-76
2023/06/10 14:01:40;;;;;;;;;;;28.60;99.90;;;;;;5096704;28;19946;-76
2023/06/10 14:04:06;;;;;;;;;;;28.90;99.90;;;;;;5092685;28;19978;-76
2023/06/10 14:06:33;;;;;;;;;;;28.70;99.90;;;;;;5094455;28;19943;-77
2023/06/10 14:09:02;;;;;;;;;;;28.70;99.90;;;;;;5092707;28;19908;-76
2023/06/10 14:11:28;;;;;;;;;;;28.60;99.90;;;;;;5113321;28;19915;-75
2023/06/10 14:13:56;;;;;;;;;;;28.60;99.90;;;;;;5114376;28;19904;-76
2023/06/10 14:16:22;;;;;;;;;;;28.80;99.90;;;;;;5114666;28;19935;-76